createdAt,value
2019-05-07T00:01:14.401Z,23.60
2019-05-07T00:02:24.014Z,23.58
2019-05-07T00:03:29.680Z,23.19
2019-05-07T00:04:35.269Z,23.26
2019-05-07T00:05:42.608Z,22.79
2019-05-07T00:06:47.025Z,22.80
2019-05-07T00:07:52.153Z,22.88
2019-05-07T00:08:57.515Z,23.48
2019-05-07T00:10:03.359Z,23.48
2019-05-07T00:11:08.842Z,23.63
2019-05-07T00:12:14.111Z,23.20
2019-05-07T00:13:19.378Z,23.67
2019-05-07T00:14:24.008Z,23.60
2019-05-07T00:15:28.704Z,23.45
2019-05-07T00:16:33.474Z,23.68
2019-05-07T00:17:38.817Z,23.29
2019-05-07T00:18:44.096Z,22.80
2019-05-07T00:19:48.803Z,23.09
2019-05-07T00:20:54.433Z,23.39
2019-05-07T00:21:59.468Z,23.31
2019-05-07T00:23:04.026Z,23.39
2019-05-07T00:24:13.183Z,23.32
2019-05-07T00:25:17.315Z,23.67
2019-05-07T00:26:22.648Z,23.69
2019-05-07T00:27:27.715Z,23.70
2019-05-07T00:28:32.662Z,23.40
2019-05-07T00:29:37.416Z,23.64
2019-05-07T00:30:45.316Z,23.45
2019-05-07T00:31:52.071Z,22.89
2019-05-07T00:32:57.518Z,23.25
2019-05-07T00:34:02.886Z,22.30
2019-05-07T00:35:09.320Z,23.16
2019-05-07T00:36:32.922Z,23.10
2019-05-07T00:37:46.394Z,23.55
2019-05-07T00:38:54.752Z,23.24
2019-05-07T00:40:32.124Z,23.31
2019-05-07T00:41:43.602Z,23.59
2019-05-07T00:43:05.952Z,23.62
2019-05-07T00:44:13.449Z,23.02
2019-05-07T00:45:25.924Z,22.98
2019-05-07T00:46:32.470Z,23.50
2019-05-07T00:47:37.243Z,23.53
2019-05-07T00:48:42.434Z,23.64
2019-05-07T00:49:47.407Z,23.53
2019-05-07T00:50:56.024Z,23.78
2019-05-07T00:52:02.858Z,24.06
2019-05-07T00:53:08.326Z,22.72
2019-05-07T00:54:13.613Z,23.04
2019-05-07T00:55:18.669Z,22.73
2019-05-07T00:56:23.691Z,22.56
2019-05-07T00:57:28.706Z,22.65
2019-05-07T00:58:33.770Z,23.08
2019-05-07T00:59:38.918Z,22.95
2019-05-07T01:00:43.581Z,22.73
2019-05-07T01:01:48.605Z,23.36
2019-05-07T01:02:53.874Z,22.19
2019-05-07T01:03:58.896Z,22.94
2019-05-07T01:05:03.913Z,23.40
2019-05-07T01:06:08.604Z,23.49
2019-05-07T01:07:13.298Z,22.68
2019-05-07T01:08:18.296Z,23.05
2019-05-07T01:09:23.505Z,23.55
2019-05-07T01:10:28.836Z,23.11
2019-05-07T01:11:33.753Z,23.28
2019-05-07T01:12:38.740Z,22.20
2019-05-07T01:13:43.617Z,22.97
2019-05-07T01:14:48.695Z,23.01
2019-05-07T01:15:54.087Z,23.43
2019-05-07T01:16:58.906Z,23.38
2019-05-07T01:18:03.915Z,23.00
2019-05-07T01:19:09.240Z,23.31
2019-05-07T01:20:15.046Z,23.17
2019-05-07T01:21:19.836Z,23.16
2019-05-07T01:22:24.822Z,23.40
2019-05-07T01:23:29.581Z,23.38
2019-05-07T01:24:35.075Z,23.36
2019-05-07T01:25:42.829Z,23.71
2019-05-07T01:26:47.375Z,23.40
2019-05-07T01:27:53.342Z,23.16
2019-05-07T01:29:02.817Z,23.61
2019-05-07T01:30:07.856Z,23.52
2019-05-07T01:31:12.705Z,23.42
2019-05-07T01:32:29.722Z,23.65
2019-05-07T01:33:47.002Z,23.75
2019-05-07T01:34:58.502Z,23.73
2019-05-07T01:36:13.252Z,23.54
2019-05-07T01:37:18.365Z,23.50
2019-05-07T01:38:23.473Z,23.62
2019-05-07T01:39:28.256Z,23.75
2019-05-07T01:40:33.102Z,23.55
2019-05-07T01:41:37.934Z,23.39
2019-05-07T01:42:42.886Z,23.10
2019-05-07T01:43:48.234Z,23.82
2019-05-07T01:44:53.277Z,23.23
2019-05-07T01:45:58.855Z,23.48
2019-05-07T01:47:04.091Z,22.90
2019-05-07T01:48:09.393Z,23.05
2019-05-07T01:49:14.696Z,23.04
2019-05-07T01:50:20.076Z,23.27
2019-05-07T01:51:25.517Z,23.19
2019-05-07T01:52:30.089Z,23.28
2019-05-07T01:53:34.930Z,23.28
2019-05-07T01:54:39.828Z,23.41
2019-05-07T01:55:44.646Z,23.57
2019-05-07T01:56:52.173Z,23.51
2019-05-07T01:57:57.058Z,23.67
2019-05-07T01:59:02.555Z,23.44
2019-05-07T02:00:07.804Z,23.75
2019-05-07T02:01:13.189Z,23.87
2019-05-07T02:02:27.296Z,23.31
2019-05-07T02:03:44.729Z,23.50
2019-05-07T02:05:03.218Z,23.66
2019-05-07T02:06:18.740Z,23.59
2019-05-07T02:07:33.554Z,24.06
2019-05-07T02:08:53.651Z,23.85
2019-05-07T02:10:22.620Z,23.77
2019-05-07T02:11:32.887Z,23.93
2019-05-07T02:12:39.042Z,24.13
2019-05-07T02:13:44.629Z,24.13
2019-05-07T02:14:49.938Z,24.21
2019-05-07T02:16:00.438Z,24.11
2019-05-07T02:17:02.953Z,24.02
2019-05-07T02:18:07.705Z,24.03
2019-05-07T02:19:13.023Z,24.42
2019-05-07T02:20:18.388Z,24.16
2019-05-07T02:21:23.701Z,24.48
2019-05-07T02:22:28.685Z,24.50
2019-05-07T02:23:33.498Z,24.53
2019-05-07T02:24:39.430Z,24.35
2019-05-07T02:25:44.991Z,24.29
2019-05-07T02:26:52.027Z,24.38
2019-05-07T02:27:57.117Z,24.45
2019-05-07T02:29:02.723Z,24.74
2019-05-07T02:30:07.735Z,24.42
2019-05-07T02:31:15.006Z,24.54
2019-05-07T02:32:19.804Z,24.38
2019-05-07T02:33:24.810Z,24.44
2019-05-07T02:34:29.791Z,24.08
2019-05-07T02:35:35.074Z,24.11
2019-05-07T02:36:43.382Z,23.87
2019-05-07T02:37:56.555Z,24.12
2019-05-07T02:39:17.919Z,23.79
2019-05-07T02:40:47.308Z,24.54
2019-05-07T02:41:54.182Z,24.43
2019-05-07T02:43:02.691Z,24.64
2019-05-07T02:44:06.104Z,24.53
2019-05-07T02:45:33.463Z,23.82
2019-05-07T02:46:55.789Z,24.12
2019-05-07T02:48:03.436Z,24.29
2019-05-07T02:49:35.608Z,24.06
2019-05-07T02:50:47.774Z,24.30
2019-05-07T02:51:57.491Z,24.40
2019-05-07T02:53:07.377Z,24.34
2019-05-07T02:54:18.593Z,24.00
2019-05-07T02:55:28.494Z,23.79
2019-05-07T02:56:33.786Z,23.82
2019-05-07T02:57:39.148Z,24.04
2019-05-07T02:58:44.572Z,23.94
2019-05-07T02:59:49.516Z,23.95
2019-05-07T03:00:54.917Z,23.97
2019-05-07T03:01:59.662Z,24.19
2019-05-07T03:03:04.769Z,24.14
2019-05-07T03:04:12.695Z,24.21
2019-05-07T03:05:16.569Z,24.30
2019-05-07T03:06:23.326Z,24.17
2019-05-07T03:07:28.343Z,24.49
2019-05-07T03:08:33.606Z,24.44
2019-05-07T03:09:38.759Z,24.39
2019-05-07T03:10:43.894Z,24.24
2019-05-07T03:11:48.569Z,24.48
2019-05-07T03:12:54.031Z,24.50
2019-05-07T03:13:58.774Z,24.56
2019-05-07T03:15:04.701Z,24.38
2019-05-07T03:16:12.817Z,24.29
2019-05-07T03:17:16.940Z,24.33
2019-05-07T03:18:23.244Z,24.72
2019-05-07T03:19:28.999Z,24.72
2019-05-07T03:20:53.922Z,24.92
2019-05-07T03:21:58.970Z,25.16
2019-05-07T03:23:04.296Z,24.79
2019-05-07T03:24:17.388Z,24.92
2019-05-07T03:25:26.157Z,24.58
2019-05-07T03:26:34.895Z,24.57
2019-05-07T03:27:42.907Z,24.66
2019-05-07T03:29:03.627Z,24.46
2019-05-07T03:30:35.936Z,24.44
2019-05-07T03:31:55.512Z,24.25
2019-05-07T03:33:07.069Z,24.62
2019-05-07T03:34:17.463Z,24.76
2019-05-07T03:35:37.253Z,24.64
2019-05-07T03:36:47.730Z,24.52
2019-05-07T03:37:54.387Z,24.75
2019-05-07T03:38:57.910Z,24.45
2019-05-07T03:40:04.228Z,24.62
2019-05-07T03:41:09.102Z,24.63
2019-05-07T03:42:14.502Z,24.67
2019-05-07T03:43:22.657Z,24.58
2019-05-07T03:44:45.312Z,24.75
2019-05-07T03:46:07.709Z,24.83
2019-05-07T03:47:17.533Z,24.83
2019-05-07T03:48:24.270Z,24.83
2019-05-07T03:49:33.845Z,24.77
2019-05-07T03:50:37.888Z,25.08
2019-05-07T03:51:44.249Z,24.56
2019-05-07T03:52:49.249Z,24.66
2019-05-07T03:53:54.208Z,24.53
2019-05-07T03:54:59.582Z,24.89
2019-05-07T03:56:04.889Z,24.71
2019-05-07T03:57:11.685Z,24.53
2019-05-07T03:58:16.990Z,24.99
2019-05-07T03:59:23.086Z,24.75
2019-05-07T04:00:33.277Z,24.92
2019-05-07T04:01:38.243Z,25.04
2019-05-07T04:02:43.948Z,24.81
2019-05-07T04:03:49.558Z,25.12
2019-05-07T04:04:54.255Z,24.83
2019-05-07T04:05:59.049Z,24.97
2019-05-07T04:07:03.843Z,24.99
2019-05-07T04:08:09.084Z,25.04
2019-05-07T04:09:13.705Z,25.12
2019-05-07T04:10:18.429Z,25.11
2019-05-07T04:11:23.545Z,25.21
2019-05-07T04:12:28.875Z,25.25
2019-05-07T04:13:34.025Z,25.02
2019-05-07T04:14:38.789Z,25.27
2019-05-07T04:15:44.431Z,25.40
2019-05-07T04:16:49.455Z,25.53
2019-05-07T04:17:54.184Z,25.86
2019-05-07T04:18:59.257Z,25.70
2019-05-07T04:20:04.673Z,25.76
2019-05-07T04:21:10.132Z,25.61
2019-05-07T04:22:15.023Z,25.10
2019-05-07T04:23:22.963Z,25.23
2019-05-07T04:24:42.678Z,25.36
2019-05-07T04:26:05.680Z,25.16
2019-05-07T04:27:33.972Z,25.45
2019-05-07T04:28:58.132Z,25.78
2019-05-07T04:30:03.972Z,25.47
2019-05-07T04:31:09.054Z,25.20
2019-05-07T04:32:14.492Z,25.27
2019-05-07T04:33:23.467Z,25.38
2019-05-07T04:34:44.840Z,25.32
2019-05-07T04:35:55.346Z,25.36
2019-05-07T04:37:03.279Z,25.41
2019-05-07T04:38:07.524Z,25.00
2019-05-07T04:39:13.440Z,25.09
2019-05-07T04:40:18.314Z,25.34
2019-05-07T04:41:23.722Z,25.44
2019-05-07T04:42:28.924Z,25.40
2019-05-07T04:43:33.942Z,25.56
2019-05-07T04:44:38.733Z,25.44
2019-05-07T04:45:43.795Z,25.42
2019-05-07T04:46:48.795Z,25.18
2019-05-07T04:47:54.072Z,25.37
2019-05-07T04:48:59.573Z,25.57
2019-05-07T04:50:04.908Z,25.58
2019-05-07T04:51:12.682Z,25.62
2019-05-07T04:52:27.355Z,25.29
2019-05-07T04:53:32.935Z,25.23
2019-05-07T04:54:37.886Z,24.75
2019-05-07T04:55:43.278Z,24.72
2019-05-07T04:56:48.529Z,24.67
2019-05-07T04:57:53.564Z,24.85
2019-05-07T04:58:58.554Z,25.37
2019-05-07T05:00:03.810Z,25.67
2019-05-07T05:01:13.594Z,25.61
2019-05-07T05:02:22.877Z,25.52
2019-05-07T05:03:28.742Z,25.34
2019-05-07T05:04:34.753Z,24.60
2019-05-07T05:05:43.259Z,24.93
2019-05-07T05:06:47.577Z,25.34
2019-05-07T05:07:53.332Z,25.97
2019-05-07T05:08:58.701Z,25.21
2019-05-07T05:10:03.447Z,25.74
2019-05-07T05:11:08.831Z,25.69
2019-05-07T05:12:13.323Z,25.87
2019-05-07T05:13:18.245Z,25.76
2019-05-07T05:14:23.106Z,25.78
2019-05-07T05:15:28.653Z,25.03
2019-05-07T05:16:33.995Z,24.79
2019-05-07T05:17:49.591Z,24.78
2019-05-07T05:18:45.889Z,25.20
2019-05-07T05:19:52.531Z,24.40
2019-05-07T05:21:15.181Z,24.69
2019-05-07T05:22:37.493Z,24.30
2019-05-07T05:23:52.390Z,24.50
2019-05-07T05:25:22.825Z,25.38
2019-05-07T05:26:27.867Z,25.37
2019-05-07T05:27:32.898Z,25.33
2019-05-07T05:28:37.870Z,25.33
2019-05-07T05:29:43.481Z,25.31
2019-05-07T05:30:52.809Z,25.52
2019-05-07T05:31:57.814Z,25.44
2019-05-07T05:33:04.410Z,25.26
2019-05-07T05:34:09.391Z,25.57
2019-05-07T05:35:14.637Z,25.02
2019-05-07T05:36:22.045Z,24.87
2019-05-07T05:37:27.248Z,24.78
2019-05-07T05:38:33.121Z,24.54
2019-05-07T05:39:38.096Z,24.60
2019-05-07T05:40:43.117Z,25.12
2019-05-07T05:41:51.865Z,25.39
2019-05-07T05:43:03.168Z,25.14
2019-05-07T05:44:22.770Z,24.95
2019-05-07T05:45:42.653Z,25.45
2019-05-07T05:46:47.564Z,25.56
2019-05-07T05:48:04.407Z,24.51
2019-05-07T05:48:59.656Z,25.04
2019-05-07T05:50:05.797Z,24.82
2019-05-07T05:51:31.687Z,24.67
2019-05-07T05:52:44.078Z,25.08
2019-05-07T05:53:53.552Z,24.42
2019-05-07T05:55:09.376Z,24.72
2019-05-07T05:56:25.854Z,24.61
2019-05-07T05:58:04.667Z,25.31
2019-05-07T05:59:25.382Z,25.36
2019-05-07T06:00:37.847Z,24.03
2019-05-07T06:02:03.348Z,24.46
2019-05-07T06:03:24.425Z,24.30
2019-05-07T06:04:52.786Z,23.72
2019-05-07T06:06:12.868Z,25.03
2019-05-07T06:07:25.334Z,25.16
2019-05-07T06:08:55.322Z,24.37
2019-05-07T06:10:08.798Z,25.12
2019-05-07T06:11:38.818Z,25.28
2019-05-07T06:12:49.151Z,25.31
2019-05-07T06:14:27.426Z,24.89
2019-05-07T06:15:49.232Z,24.98
2019-05-07T06:17:13.046Z,24.08
2019-05-07T06:18:35.581Z,25.41
2019-05-07T06:19:46.422Z,25.69
2019-05-07T06:21:09.838Z,25.69
2019-05-07T06:22:42.863Z,26.28
2019-05-07T06:23:53.598Z,26.35
2019-05-07T06:25:02.353Z,26.76
2019-05-07T06:26:07.491Z,26.51
2019-05-07T06:27:12.461Z,25.93
2019-05-07T06:28:17.191Z,26.45
2019-05-07T06:29:23.158Z,27.05
2019-05-07T06:30:27.923Z,26.80
2019-05-07T06:31:33.337Z,27.24
2019-05-07T06:32:38.338Z,25.98
2019-05-07T06:33:43.408Z,25.53
2019-05-07T06:34:48.416Z,26.78
2019-05-07T06:35:52.862Z,27.72
2019-05-07T06:36:57.565Z,27.42
2019-05-07T06:38:04.051Z,27.69
2019-05-07T06:39:23.795Z,28.10
2019-05-07T06:40:47.378Z,27.76
2019-05-07T06:42:09.946Z,27.80
2019-05-07T06:43:25.985Z,28.11
2019-05-07T06:44:32.006Z,28.09
2019-05-07T06:45:42.198Z,28.22
2019-05-07T06:46:47.291Z,28.30
2019-05-07T06:47:52.297Z,27.53
2019-05-07T06:48:56.997Z,27.46
2019-05-07T06:50:03.140Z,28.18
2019-05-07T06:51:07.611Z,29.84
2019-05-07T06:52:12.397Z,30.35
2019-05-07T06:53:17.375Z,30.05
2019-05-07T06:54:22.667Z,29.32
2019-05-07T06:55:27.948Z,28.47
2019-05-07T06:56:32.975Z,28.37
2019-05-07T06:57:38.347Z,28.41
2019-05-07T06:59:04.695Z,27.81
2019-05-07T07:00:28.876Z,27.82
2019-05-07T07:01:57.258Z,28.88
2019-05-07T07:03:12.748Z,29.04
2019-05-07T07:04:35.108Z,28.23
2019-05-07T07:05:59.649Z,30.06
2019-05-07T07:07:37.431Z,30.71
2019-05-07T07:09:12.710Z,31.23
2019-05-07T07:10:39.993Z,31.73
2019-05-07T07:11:53.083Z,30.63
2019-05-07T07:12:58.427Z,31.49
2019-05-07T07:14:03.157Z,31.79
2019-05-07T07:15:07.849Z,33.17
2019-05-07T07:16:13.088Z,33.41
2019-05-07T07:17:17.817Z,33.76
2019-05-07T07:18:23.195Z,33.79
2019-05-07T07:19:28.683Z,34.77
2019-05-07T07:20:33.976Z,34.97
2019-05-07T07:21:39.019Z,34.73
2019-05-07T07:22:44.021Z,35.49
2019-05-07T07:23:49.350Z,36.88
2019-05-07T07:24:54.057Z,37.56
2019-05-07T07:25:59.083Z,36.48
2019-05-07T07:27:04.108Z,37.78
2019-05-07T07:28:08.868Z,36.01
2019-05-07T07:29:15.486Z,36.67
2019-05-07T07:30:42.062Z,35.39
2019-05-07T07:31:52.790Z,35.27
2019-05-07T07:32:58.314Z,36.66
2019-05-07T07:34:04.013Z,36.30
2019-05-07T07:35:10.162Z,37.14
2019-05-07T07:36:15.216Z,36.82
2019-05-07T07:37:42.849Z,37.10
2019-05-07T07:38:47.388Z,37.10
2019-05-07T07:39:54.546Z,37.30
2019-05-07T07:41:23.912Z,38.75
2019-05-07T07:42:28.894Z,39.04
2019-05-07T07:43:33.897Z,39.08
2019-05-07T07:44:38.661Z,39.37
2019-05-07T07:45:43.689Z,39.05
2019-05-07T07:46:48.735Z,38.04
2019-05-07T07:47:53.283Z,37.30
2019-05-07T07:49:09.848Z,38.12
2019-05-07T07:50:05.233Z,37.97
2019-05-07T07:51:10.514Z,36.93
2019-05-07T07:52:15.634Z,36.05
2019-05-07T07:53:22.722Z,36.75
2019-05-07T07:54:27.792Z,34.53
2019-05-07T07:55:46.715Z,35.56
2019-05-07T07:57:21.678Z,36.39
2019-05-07T07:58:41.928Z,35.09
2019-05-07T07:59:52.858Z,33.58
2019-05-07T08:01:14.888Z,31.63
2019-05-07T08:02:27.390Z,31.98
2019-05-07T08:03:33.001Z,31.85
2019-05-07T08:04:38.028Z,30.52
2019-05-07T08:05:43.090Z,29.56
2019-05-07T08:06:52.275Z,30.67
2019-05-07T08:07:56.759Z,30.52
2019-05-07T08:09:02.238Z,29.43
2019-05-07T08:10:07.655Z,29.19
2019-05-07T08:11:12.834Z,29.10
2019-05-07T08:12:17.500Z,29.10
2019-05-07T08:13:23.057Z,29.05
2019-05-07T08:14:27.935Z,29.21
2019-05-07T08:15:33.189Z,29.48
2019-05-07T08:16:38.227Z,29.32
2019-05-07T08:17:43.218Z,28.56
2019-05-07T08:18:47.914Z,28.85
2019-05-07T08:19:52.421Z,28.47
2019-05-07T08:20:56.889Z,28.38
2019-05-07T08:22:02.983Z,28.08
2019-05-07T08:23:07.797Z,28.33
2019-05-07T08:24:12.795Z,28.21
2019-05-07T08:25:17.351Z,28.66
2019-05-07T08:26:22.070Z,29.07
2019-05-07T08:27:26.746Z,29.32
2019-05-07T08:28:32.126Z,28.86
2019-05-07T08:29:37.371Z,27.99
2019-05-07T08:30:43.925Z,27.12
2019-05-07T08:31:55.333Z,27.99
2019-05-07T08:33:03.722Z,27.44
2019-05-07T08:34:15.879Z,26.66
2019-05-07T08:35:32.528Z,27.61
2019-05-07T08:36:37.279Z,27.33
2019-05-07T08:37:42.718Z,27.36
2019-05-07T08:38:52.901Z,27.89
2019-05-07T08:39:57.783Z,27.74
2019-05-07T08:41:03.020Z,27.82
2019-05-07T08:42:08.083Z,27.27
2019-05-07T08:43:12.789Z,27.64
2019-05-07T08:44:22.315Z,27.61
2019-05-07T08:45:44.721Z,27.60
2019-05-07T08:47:03.590Z,27.14
2019-05-07T08:48:32.979Z,27.05
2019-05-07T08:49:40.382Z,27.33
2019-05-07T08:50:46.191Z,27.81
2019-05-07T08:52:03.959Z,27.39
2019-05-07T08:53:08.485Z,27.12
2019-05-07T08:54:13.215Z,26.86
2019-05-07T08:55:18.526Z,27.15
2019-05-07T08:56:23.512Z,26.80
2019-05-07T08:57:28.896Z,26.12
2019-05-07T08:58:33.853Z,26.86
2019-05-07T08:59:38.950Z,26.29
2019-05-07T09:00:44.221Z,27.13
2019-05-07T09:01:48.925Z,27.78
2019-05-07T09:02:53.923Z,28.25
2019-05-07T09:03:58.630Z,28.17
2019-05-07T09:05:03.329Z,28.14
2019-05-07T09:06:08.008Z,28.32
2019-05-07T09:07:13.253Z,28.63
2019-05-07T09:08:17.928Z,28.56
2019-05-07T09:09:22.647Z,28.18
2019-05-07T09:10:27.422Z,27.52
2019-05-07T09:11:32.692Z,27.64
2019-05-07T09:12:37.397Z,28.21
2019-05-07T09:13:42.199Z,27.12
2019-05-07T09:14:47.374Z,26.88
2019-05-07T09:15:52.920Z,28.46
2019-05-07T09:16:57.407Z,29.94
2019-05-07T09:18:02.406Z,30.36
2019-05-07T09:19:07.238Z,29.95
2019-05-07T09:20:12.771Z,29.66
2019-05-07T09:21:17.427Z,29.81
2019-05-07T09:22:23.129Z,28.86
2019-05-07T09:23:28.166Z,29.10
2019-05-07T09:24:33.569Z,28.75
2019-05-07T09:25:47.457Z,28.32
2019-05-07T09:27:22.939Z,28.60
2019-05-07T09:28:32.643Z,28.47
2019-05-07T09:30:05.364Z,28.27
2019-05-07T09:31:18.267Z,27.71
2019-05-07T09:32:32.472Z,27.68
2019-05-07T09:33:43.896Z,28.19
2019-05-07T09:34:48.932Z,28.39
2019-05-07T09:35:55.238Z,27.99
2019-05-07T09:37:02.351Z,28.18
2019-05-07T09:38:07.486Z,28.28
2019-05-07T09:39:12.243Z,28.48
2019-05-07T09:40:17.271Z,28.65
2019-05-07T09:41:28.063Z,29.09
2019-05-07T09:42:33.506Z,29.06
2019-05-07T09:43:38.775Z,28.97
2019-05-07T09:44:44.037Z,28.88
2019-05-07T09:45:49.311Z,28.92
2019-05-07T09:46:54.049Z,28.33
2019-05-07T09:47:58.775Z,28.55
2019-05-07T09:49:03.782Z,28.49
2019-05-07T09:50:09.029Z,29.08
2019-05-07T09:51:14.060Z,28.53
2019-05-07T09:52:19.098Z,29.00
2019-05-07T09:53:24.055Z,28.81
2019-05-07T09:54:28.794Z,29.12
2019-05-07T09:55:34.048Z,29.21
2019-05-07T09:56:39.436Z,29.40
2019-05-07T09:57:44.198Z,29.34
2019-05-07T09:58:48.812Z,29.89
2019-05-07T09:59:53.634Z,29.82
2019-05-07T10:00:58.622Z,29.40
2019-05-07T10:02:03.282Z,29.16
2019-05-07T10:03:08.314Z,29.49
2019-05-07T10:04:13.354Z,29.06
2019-05-07T10:05:18.046Z,28.70
2019-05-07T10:06:23.050Z,29.66
2019-05-07T10:07:28.501Z,29.20
2019-05-07T10:08:33.402Z,29.74
2019-05-07T10:09:38.758Z,29.05
2019-05-07T10:10:45.625Z,29.37
2019-05-07T10:11:57.245Z,29.42
2019-05-07T10:13:12.096Z,29.71
2019-05-07T10:14:17.247Z,29.61
2019-05-07T10:15:22.607Z,30.06
2019-05-07T10:16:39.235Z,29.78
2019-05-07T10:17:54.170Z,30.06
2019-05-07T10:18:59.164Z,29.71
2019-05-07T10:20:17.901Z,29.99
2019-05-07T10:21:12.629Z,30.08
2019-05-07T10:22:17.727Z,29.78
2019-05-07T10:23:23.239Z,29.90
2019-05-07T10:24:28.038Z,30.19
2019-05-07T10:25:38.892Z,29.97
2019-05-07T10:26:43.384Z,30.46
2019-05-07T10:27:48.353Z,31.27
2019-05-07T10:28:53.923Z,31.16
2019-05-07T10:29:59.322Z,31.11
2019-05-07T10:31:04.300Z,30.78
2019-05-07T10:32:09.100Z,30.85
2019-05-07T10:33:13.866Z,29.82
2019-05-07T10:34:18.851Z,29.91
2019-05-07T10:35:23.550Z,29.68
2019-05-07T10:36:28.579Z,29.54
2019-05-07T10:37:33.543Z,29.77
2019-05-07T10:38:38.881Z,30.00
2019-05-07T10:39:43.335Z,29.95
2019-05-07T10:40:48.030Z,29.89
2019-05-07T10:41:53.032Z,29.64
2019-05-07T10:42:57.750Z,28.11
2019-05-07T10:44:02.764Z,26.41
2019-05-07T10:45:35.889Z,26.47
2019-05-07T10:46:58.067Z,26.66
2019-05-07T10:48:27.289Z,28.14
2019-05-07T10:49:54.113Z,28.17
2019-05-07T10:50:59.518Z,28.01
2019-05-07T10:52:04.024Z,28.59
2019-05-07T10:53:09.291Z,28.74
2019-05-07T10:54:14.007Z,28.82
2019-05-07T10:55:19.084Z,28.76
2019-05-07T10:56:23.798Z,28.66
2019-05-07T10:57:29.142Z,28.60
2019-05-07T10:58:34.126Z,28.76
2019-05-07T10:59:38.875Z,28.38
2019-05-07T11:00:43.541Z,27.83
2019-05-07T11:01:57.459Z,27.79
2019-05-07T11:03:02.553Z,27.82
2019-05-07T11:04:07.320Z,28.34
2019-05-07T11:05:13.081Z,27.83
2019-05-07T11:06:17.804Z,27.75
2019-05-07T11:07:22.688Z,27.54
2019-05-07T11:08:27.124Z,27.81
2019-05-07T11:09:32.834Z,28.00
2019-05-07T11:10:37.643Z,28.00
2019-05-07T11:11:42.605Z,27.99
2019-05-07T11:12:47.559Z,27.58
2019-05-07T11:13:55.833Z,27.52
2019-05-07T11:14:59.054Z,28.07
2019-05-07T11:16:07.765Z,28.02
2019-05-07T11:17:27.487Z,27.56
2019-05-07T11:18:39.813Z,28.06
2019-05-07T11:19:44.805Z,28.02
2019-05-07T11:20:51.159Z,27.93
2019-05-07T11:21:55.933Z,27.93
2019-05-07T11:23:02.652Z,27.90
2019-05-07T11:24:07.796Z,27.76
2019-05-07T11:25:12.687Z,27.77
2019-05-07T11:26:17.782Z,28.20
2019-05-07T11:27:23.021Z,27.92
2019-05-07T11:28:28.097Z,28.03
2019-05-07T11:29:36.366Z,28.39
2019-05-07T11:30:39.875Z,28.27
2019-05-07T11:31:44.923Z,28.30
2019-05-07T11:32:52.064Z,28.26
2019-05-07T11:33:57.412Z,27.80
2019-05-07T11:35:03.159Z,28.42
2019-05-07T11:36:07.656Z,28.45
2019-05-07T11:37:12.633Z,28.43
2019-05-07T11:38:21.561Z,28.36
2019-05-07T11:39:24.349Z,28.66
2019-05-07T11:40:29.072Z,27.73
2019-05-07T11:41:47.614Z,27.66
2019-05-07T11:43:22.252Z,30.59
2019-05-07T11:44:29.047Z,30.00
2019-05-07T11:45:59.305Z,29.94
2019-05-07T11:47:28.931Z,29.34
2019-05-07T11:48:36.488Z,29.04
2019-05-07T11:49:58.556Z,29.57
2019-05-07T11:51:15.161Z,28.42
2019-05-07T11:52:28.337Z,27.14
2019-05-07T11:53:33.472Z,28.11
2019-05-07T11:54:38.522Z,27.76
2019-05-07T11:55:43.771Z,27.84
2019-05-07T11:56:48.464Z,26.98
2019-05-07T11:57:53.487Z,26.88
2019-05-07T11:58:59.075Z,27.50
2019-05-07T12:00:03.874Z,27.49
2019-05-07T12:01:13.571Z,27.96
2019-05-07T12:02:18.621Z,27.43
2019-05-07T12:03:23.661Z,27.51
2019-05-07T12:04:28.951Z,27.21
2019-05-07T12:05:34.210Z,27.30
2019-05-07T12:06:39.360Z,27.00
2019-05-07T12:07:44.055Z,26.65
2019-05-07T12:08:51.931Z,26.59
2019-05-07T12:09:56.074Z,27.14
2019-05-07T12:11:02.406Z,26.73
2019-05-07T12:12:07.507Z,26.48
2019-05-07T12:13:12.993Z,26.20
2019-05-07T12:14:28.934Z,26.69
2019-05-07T12:15:24.711Z,26.09
2019-05-07T12:16:32.038Z,26.17
2019-05-07T12:17:36.508Z,26.68
2019-05-07T12:18:43.083Z,26.14
2019-05-07T12:19:48.400Z,26.51
2019-05-07T12:20:54.188Z,26.79
2019-05-07T12:21:59.746Z,25.95
2019-05-07T12:23:04.639Z,26.13
2019-05-07T12:24:09.144Z,26.63
2019-05-07T12:25:13.946Z,26.96
2019-05-07T12:26:18.413Z,27.24
2019-05-07T12:27:23.095Z,27.13
2019-05-07T12:28:28.346Z,27.38
2019-05-07T12:29:33.035Z,27.10
2019-05-07T12:31:06.235Z,26.47
2019-05-07T12:32:24.882Z,25.39
2019-05-07T12:33:52.186Z,26.17
2019-05-07T12:35:02.212Z,26.85
2019-05-07T12:36:07.822Z,26.86
2019-05-07T12:37:12.518Z,27.28
2019-05-07T12:38:17.016Z,27.40
2019-05-07T12:39:22.256Z,27.65
2019-05-07T12:40:26.948Z,27.36
2019-05-07T12:41:33.756Z,28.14
2019-05-07T12:42:38.917Z,28.75
2019-05-07T12:43:43.607Z,28.74
2019-05-07T12:44:49.257Z,29.20
2019-05-07T12:45:54.255Z,29.47
2019-05-07T12:46:58.965Z,29.16
2019-05-07T12:48:03.687Z,29.62
2019-05-07T12:49:08.682Z,29.09
2019-05-07T12:50:14.439Z,29.32
2019-05-07T12:51:31.630Z,29.54
2019-05-07T12:52:38.943Z,29.62
2019-05-07T12:53:47.892Z,29.58
2019-05-07T12:54:56.931Z,28.07
2019-05-07T12:56:02.187Z,28.08
2019-05-07T12:57:07.208Z,28.57
2019-05-07T12:58:12.658Z,28.17
2019-05-07T12:59:18.165Z,27.38
2019-05-07T13:00:42.533Z,27.06
2019-05-07T13:02:16.680Z,27.02
2019-05-07T13:03:34.595Z,26.44
2019-05-07T13:04:41.812Z,26.36
2019-05-07T13:05:46.869Z,27.67
2019-05-07T13:07:15.276Z,28.01
2019-05-07T13:08:22.832Z,27.84
2019-05-07T13:09:27.315Z,27.67
2019-05-07T13:10:33.607Z,26.65
2019-05-07T13:11:38.548Z,27.54
2019-05-07T13:12:43.815Z,27.47
2019-05-07T13:13:48.524Z,27.14
2019-05-07T13:14:53.228Z,27.58
2019-05-07T13:15:57.924Z,28.04
2019-05-07T13:17:03.190Z,27.50
2019-05-07T13:18:07.903Z,27.37
2019-05-07T13:19:13.268Z,27.26
2019-05-07T13:20:18.116Z,28.14
2019-05-07T13:21:23.398Z,28.77
2019-05-07T13:22:32.605Z,28.36
2019-05-07T13:23:37.412Z,26.63
2019-05-07T13:24:42.711Z,26.10
2019-05-07T13:25:47.753Z,27.59
2019-05-07T13:26:52.726Z,28.50
2019-05-07T13:27:57.987Z,28.74
2019-05-07T13:29:03.068Z,29.26
2019-05-07T13:30:07.918Z,29.32
2019-05-07T13:31:12.681Z,27.96
2019-05-07T13:32:18.162Z,27.80
2019-05-07T13:33:24.198Z,28.45
2019-05-07T13:34:29.258Z,29.16
2019-05-07T13:35:35.140Z,28.30
2019-05-07T13:36:43.265Z,27.95
2019-05-07T13:37:55.475Z,27.52
2019-05-07T13:39:14.156Z,26.70
2019-05-07T13:40:25.044Z,27.15
2019-05-07T13:41:48.873Z,27.80
2019-05-07T13:43:12.008Z,27.81
2019-05-07T13:44:41.768Z,27.73
2019-05-07T13:46:02.904Z,28.32
2019-05-07T13:47:31.032Z,28.96
2019-05-07T13:48:37.582Z,29.29
2019-05-07T13:49:42.857Z,29.32
2019-05-07T13:50:47.958Z,29.01
2019-05-07T13:52:02.799Z,29.19
2019-05-07T13:52:59.218Z,28.91
2019-05-07T13:54:04.137Z,28.95
2019-05-07T13:55:09.044Z,28.80
2019-05-07T13:56:13.493Z,29.13
2019-05-07T13:57:18.165Z,29.04
2019-05-07T13:58:23.474Z,29.28
2019-05-07T13:59:28.158Z,29.48
2019-05-07T14:00:38.222Z,29.60
2019-05-07T14:02:04.496Z,29.23
2019-05-07T14:03:09.299Z,28.16
2019-05-07T14:04:14.672Z,28.67
2019-05-07T14:05:21.657Z,28.09
2019-05-07T14:06:42.912Z,28.18
2019-05-07T14:07:48.232Z,28.70
2019-05-07T14:08:52.919Z,28.77
2019-05-07T14:09:58.190Z,29.01
2019-05-07T14:11:03.009Z,28.82
2019-05-07T14:12:07.759Z,29.00
2019-05-07T14:13:17.123Z,28.74
2019-05-07T14:14:19.089Z,28.77
2019-05-07T14:15:23.784Z,28.52
2019-05-07T14:16:28.310Z,28.58
2019-05-07T14:17:33.418Z,28.67
2019-05-07T14:18:39.813Z,28.82
2019-05-07T14:19:45.077Z,27.53
2019-05-07T14:20:50.590Z,27.92
2019-05-07T14:21:55.593Z,27.30
2019-05-07T14:23:00.411Z,27.96
2019-05-07T14:24:04.868Z,28.15
2019-05-07T14:25:10.609Z,28.30
2019-05-07T14:26:15.587Z,28.57
2019-05-07T14:27:20.855Z,28.46
2019-05-07T14:28:25.818Z,28.32
2019-05-07T14:29:32.016Z,27.63
2019-05-07T14:30:36.846Z,27.47
2019-05-07T14:31:42.711Z,27.60
2019-05-07T14:32:54.889Z,27.45
2019-05-07T14:34:14.477Z,28.02
2019-05-07T14:35:44.259Z,28.11
2019-05-07T14:37:07.831Z,27.95
2019-05-07T14:38:23.161Z,28.30
2019-05-07T14:39:27.986Z,28.42
2019-05-07T14:40:32.992Z,28.41
2019-05-07T14:41:38.098Z,28.47
2019-05-07T14:42:47.451Z,28.57
2019-05-07T14:44:06.894Z,28.27